createdAt,value
2018-04-08T00:00:37.545Z,100988.73
2018-04-08T00:03:05.108Z,100983.97
2018-04-08T00:05:32.634Z,100994.80
2018-04-08T00:08:00.192Z,100996.11
2018-04-08T00:10:29.976Z,100996.61
2018-04-08T00:12:57.536Z,100999.22
2018-04-08T00:15:25.752Z,100988.81
2018-04-08T00:17:57.753Z,100996.63
2018-04-08T00:20:25.308Z,101001.01
2018-04-08T00:22:52.857Z,100996.30
2018-04-08T00:25:20.364Z,100999.81
2018-04-08T00:27:49.796Z,100992.06
2018-04-08T00:30:17.520Z,100996.89
2018-04-08T00:32:46.271Z,100999.94
2018-04-08T00:35:17.598Z,101003.91
2018-04-08T00:37:45.164Z,101006.55
2018-04-08T00:40:12.706Z,101007.02
2018-04-08T00:42:40.252Z,101012.18
2018-04-08T00:45:08.524Z,100997.00
2018-04-08T00:47:37.088Z,100993.52
2018-04-08T00:50:05.455Z,100988.32
2018-04-08T00:52:35.842Z,100980.49
2018-04-08T00:55:03.425Z,100974.44
2018-04-08T00:57:31.115Z,100972.70
2018-04-08T00:59:58.664Z,100967.49
2018-04-08T01:02:26.256Z,100968.79
2018-04-08T01:04:53.817Z,100968.38
2018-04-08T01:07:21.437Z,100965.41
2018-04-08T01:09:49.796Z,100964.54
2018-04-08T01:12:17.321Z,100952.46
2018-04-08T01:14:44.868Z,100947.72
2018-04-08T01:17:12.480Z,100941.25
2018-04-08T01:19:40.058Z,100938.74
2018-04-08T01:22:08.121Z,100950.49
2018-04-08T01:24:36.880Z,100936.77
2018-04-08T01:27:11.343Z,100939.45
2018-04-08T01:29:38.893Z,100933.05
2018-04-08T01:32:06.413Z,100929.76
2018-04-08T01:34:33.960Z,100929.38
2018-04-08T01:37:01.736Z,100932.02
2018-04-08T01:39:31.813Z,100928.22
2018-04-08T01:42:01.821Z,100931.27
2018-04-08T01:44:29.749Z,100927.88
2018-04-08T01:46:57.288Z,100930.05
2018-04-08T01:49:24.916Z,100931.81
2018-04-08T01:51:52.441Z,100926.67
2018-04-08T01:54:20.058Z,100928.45
2018-04-08T01:56:50.255Z,100930.23
2018-04-08T01:59:18.520Z,100926.33
2018-04-08T02:01:47.180Z,100927.63
2018-04-08T02:04:14.746Z,100923.25
2018-04-08T02:06:42.276Z,100922.36
2018-04-08T02:09:09.798Z,100915.88
2018-04-08T02:11:37.453Z,100900.34
2018-04-08T02:14:05.961Z,100896.91
2018-04-08T02:16:33.626Z,100897.42
2018-04-08T02:19:02.181Z,100899.66
2018-04-08T02:21:30.853Z,100905.39
2018-04-08T02:23:58.362Z,100902.11
2018-04-08T02:26:25.896Z,100899.25
2018-04-08T02:28:53.569Z,100905.91
2018-04-08T02:31:21.545Z,100909.88
2018-04-08T02:36:22.748Z,100906.95
2018-04-08T02:38:50.417Z,100908.26
2018-04-08T02:41:17.949Z,100910.44
2018-04-08T02:43:45.478Z,100916.11
2018-04-08T02:46:13.053Z,100910.93
2018-04-08T02:48:42.133Z,100908.78
2018-04-08T02:51:09.820Z,100905.77
2018-04-08T02:53:37.442Z,100902.32
2018-04-08T02:56:04.974Z,100901.50
2018-04-08T02:58:32.533Z,100904.53
2018-04-08T03:01:00.067Z,100911.02
2018-04-08T03:03:27.757Z,100911.95
2018-04-08T03:05:56.186Z,100905.49
2018-04-08T03:08:24.785Z,100903.84
2018-04-08T03:10:53.813Z,100895.22
2018-04-08T03:13:21.373Z,100893.95
2018-04-08T03:15:48.933Z,100899.55
2018-04-08T03:18:16.520Z,100890.06
2018-04-08T03:20:44.100Z,100891.33
2018-04-08T03:23:12.861Z,100890.48
2018-04-08T03:25:41.340Z,100899.98
2018-04-08T03:28:13.351Z,100894.80
2018-04-08T03:30:40.925Z,100890.98
2018-04-08T03:33:08.468Z,100887.62
2018-04-08T03:35:36.022Z,100892.81
2018-04-08T03:38:03.596Z,100906.69
2018-04-08T03:40:32.533Z,100901.98
2018-04-08T03:43:00.860Z,100882.27
2018-04-08T03:45:32.092Z,100890.58
2018-04-08T03:47:59.639Z,100890.23
2018-04-08T03:50:27.169Z,100895.95
2018-04-08T03:52:54.708Z,100890.91
2018-04-08T03:55:22.353Z,100898.34
2018-04-08T03:57:54.123Z,100895.39
2018-04-08T04:00:21.701Z,100897.21
2018-04-08T04:02:50.029Z,100901.13
2018-04-08T04:05:17.575Z,100899.89
2018-04-08T04:07:45.123Z,100899.95
2018-04-08T04:10:12.709Z,100899.09
2018-04-08T04:12:40.391Z,100899.96
2018-04-08T04:15:08.981Z,100896.95
2018-04-08T04:17:37.561Z,100896.08
2018-04-08T04:20:16.841Z,100893.49
2018-04-08T04:22:56.175Z,100892.20
2018-04-08T04:25:35.593Z,100889.64
2018-04-08T04:28:03.149Z,100889.26
2018-04-08T04:30:30.820Z,100889.71
2018-04-08T04:32:58.472Z,100891.49
2018-04-08T04:35:28.684Z,100886.77
2018-04-08T04:37:57.537Z,100888.06
2018-04-08T04:40:25.062Z,100885.55
2018-04-08T04:42:52.652Z,100892.91
2018-04-08T04:45:20.161Z,100895.11
2018-04-08T04:47:47.749Z,100890.02
2018-04-08T04:50:15.606Z,100895.66
2018-04-08T04:52:44.423Z,100897.94
2018-04-08T04:55:12.084Z,100907.91
2018-04-08T04:57:39.608Z,100906.23
2018-04-08T05:00:07.148Z,100904.58
2018-04-08T05:02:34.672Z,100900.30
2018-04-08T05:05:02.245Z,100896.02
2018-04-08T05:07:29.793Z,100892.09
2018-04-08T05:09:57.349Z,100890.79
2018-04-08T05:12:24.976Z,100889.07
2018-04-08T05:14:52.496Z,100892.52
2018-04-08T05:17:19.988Z,100886.97
2018-04-08T05:19:47.509Z,100901.66
2018-04-08T05:22:15.076Z,100898.22
2018-04-08T05:24:42.620Z,100897.84
2018-04-08T05:27:10.225Z,100896.98
2018-04-08T05:29:37.816Z,100897.42
2018-04-08T05:32:05.331Z,100895.28
2018-04-08T05:34:32.884Z,100893.61
2018-04-08T05:37:00.404Z,100895.77
2018-04-08T05:39:28.053Z,100893.20
2018-04-08T05:41:56.504Z,100888.52
2018-04-08T05:47:08.222Z,100895.02
2018-04-08T05:49:35.741Z,100890.33
2018-04-08T05:52:03.285Z,100887.77
2018-04-08T05:54:30.886Z,100889.97
2018-04-08T05:56:58.492Z,100892.57
2018-04-08T05:59:26.059Z,100890.86
2018-04-08T06:01:53.629Z,100895.23
2018-04-08T06:04:25.231Z,100900.41
2018-04-08T06:06:52.801Z,100900.42
2018-04-08T06:09:20.403Z,100894.00
2018-04-08T06:11:50.919Z,100898.73
2018-04-08T06:14:18.502Z,100906.50
2018-04-08T06:16:46.079Z,100906.50
2018-04-08T06:19:13.656Z,100906.45
2018-04-08T06:21:41.205Z,100905.14
2018-04-08T06:24:08.781Z,100895.59
2018-04-08T06:26:36.310Z,100899.80
2018-04-08T06:29:03.919Z,100897.56
2018-04-08T06:31:31.565Z,100898.72
2018-04-08T06:33:59.867Z,100902.52
2018-04-08T06:36:27.589Z,100905.03
2018-04-08T06:38:55.189Z,100905.81
2018-04-08T06:41:22.713Z,100915.21
2018-04-08T06:43:50.236Z,100918.99
2018-04-08T06:46:18.736Z,100916.76
2018-04-08T06:48:47.152Z,100918.83
2018-04-08T06:51:15.816Z,100926.46
2018-04-08T06:53:43.521Z,100924.58
2018-04-08T06:56:11.285Z,100927.55
2018-04-08T06:58:38.805Z,100935.69
2018-04-08T07:01:06.333Z,100945.98
2018-04-08T07:03:33.918Z,100941.58
2018-04-08T07:06:01.717Z,100940.21
2018-04-08T07:08:29.319Z,100945.34
2018-04-08T07:10:56.906Z,100946.13
2018-04-08T07:13:24.504Z,100945.55
2018-04-08T07:15:52.034Z,100949.27
2018-04-08T07:18:19.626Z,100944.34
2018-04-08T07:20:47.309Z,100942.88
2018-04-08T07:23:15.030Z,100941.41
2018-04-08T07:25:42.684Z,100941.66
2018-04-08T07:28:10.340Z,100938.05
2018-04-08T07:30:37.927Z,100938.30
2018-04-08T07:33:05.503Z,100938.54
2018-04-08T07:35:33.009Z,100939.67
2018-04-08T07:38:00.548Z,100937.80
2018-04-08T07:40:28.201Z,100940.72
2018-04-08T07:42:56.973Z,100947.98
2018-04-08T07:45:25.891Z,100946.15
2018-04-08T07:47:53.608Z,100944.77
2018-04-08T07:50:21.136Z,100952.44
2018-04-08T07:52:48.681Z,100947.95
2018-04-08T07:55:16.205Z,100954.25
2018-04-08T07:57:46.422Z,100953.25
2018-04-08T08:02:48.321Z,100942.77
2018-04-08T08:05:17.857Z,100940.33
2018-04-08T08:07:45.565Z,100936.58
2018-04-08T08:10:13.249Z,100928.69
2018-04-08T08:12:40.902Z,100930.20
2018-04-08T08:15:09.946Z,100926.92
2018-04-08T08:17:44.438Z,100926.61
2018-04-08T08:20:17.013Z,100935.39
2018-04-08T08:22:48.356Z,100931.71
2018-04-08T08:25:15.977Z,100934.05
2018-04-08T08:27:43.545Z,100933.86
2018-04-08T08:30:11.100Z,100936.70
2018-04-08T08:32:44.351Z,100939.50
2018-04-08T08:35:16.314Z,100935.81
2018-04-08T08:40:52.547Z,100939.11
2018-04-08T08:43:20.113Z,100926.31
2018-04-08T08:45:47.765Z,100916.16
2018-04-08T08:48:15.981Z,100920.36
2018-04-08T08:59:20.022Z,100921.87
2018-04-08T09:01:47.595Z,100920.88
2018-04-08T09:04:31.657Z,100924.69
2018-04-08T09:16:16.853Z,100914.39
2018-04-08T09:18:46.769Z,100915.02
2018-04-08T09:21:24.385Z,100911.75
2018-04-08T09:33:11.988Z,100919.13
2018-04-08T09:35:59.644Z,100914.05
2018-04-08T09:38:49.362Z,100909.05
2018-04-08T09:50:25.669Z,100907.45
2018-04-08T09:52:53.320Z,100908.26
2018-04-08T09:55:21.044Z,100906.88
2018-04-08T10:07:22.591Z,100918.65
2018-04-08T10:09:51.127Z,100914.96
2018-04-08T10:12:19.880Z,100903.78
2018-04-08T10:23:58.424Z,100894.58
2018-04-08T10:26:27.879Z,100906.62
2018-04-08T10:40:56.410Z,100881.50
2018-04-08T10:43:23.963Z,100879.48
2018-04-08T10:45:51.523Z,100883.71
2018-04-08T10:48:21.120Z,100880.56
2018-04-08T10:59:41.861Z,100870.49
2018-04-08T11:02:09.557Z,100874.07
2018-04-08T11:04:37.114Z,100872.94
2018-04-08T11:15:49.962Z,100862.20
2018-04-08T11:18:17.583Z,100866.13
2018-04-08T11:20:45.132Z,100859.23
2018-04-08T11:34:08.785Z,100837.80
2018-04-08T11:36:36.309Z,100834.81
2018-04-08T11:39:03.909Z,100830.25
2018-04-08T11:49:53.602Z,100820.69
2018-04-08T11:52:21.165Z,100822.84
2018-04-08T11:54:48.701Z,100826.09
2018-04-08T11:57:17.553Z,100830.13
2018-04-08T12:08:53.875Z,100836.73
2018-04-08T12:11:21.395Z,100828.75
2018-04-08T12:13:48.972Z,100828.09
2018-04-08T12:25:24.300Z,100838.11
2018-04-08T12:27:51.862Z,100840.43
2018-04-08T12:30:19.438Z,100843.33
2018-04-08T12:59:50.395Z,100855.66
2018-04-08T13:02:18.016Z,100860.09
2018-04-08T13:04:45.582Z,100856.75
2018-04-08T13:16:10.876Z,100844.86
2018-04-08T13:18:38.444Z,100843.07
2018-04-08T13:21:06.021Z,100836.98
2018-04-08T13:23:34.236Z,100846.55
2018-04-08T13:35:00.076Z,100838.00
2018-04-08T13:37:27.699Z,100836.52
2018-04-08T13:39:55.324Z,100837.23
2018-04-08T13:51:24.289Z,100836.50
2018-04-08T13:53:52.063Z,100843.45
2018-04-08T13:56:19.676Z,100846.06
2018-04-08T14:07:56.381Z,100837.84
2018-04-08T14:10:23.949Z,100842.77
2018-04-08T14:12:51.702Z,100835.56
2018-04-08T14:24:28.268Z,100837.68
2018-04-08T14:26:56.972Z,100839.27
2018-04-08T14:29:24.597Z,100833.73
2018-04-08T14:41:03.857Z,100837.40
2018-04-08T14:43:37.062Z,100839.09
2018-04-08T14:46:19.151Z,100848.01
2018-04-08T16:08:01.452Z,100874.63
2018-04-08T16:25:23.179Z,100865.38
2018-04-08T16:27:51.082Z,100870.97
2018-04-08T16:30:18.737Z,100869.00
2018-04-08T16:41:58.095Z,100875.20
2018-04-08T16:44:35.598Z,100879.84
2018-04-08T16:47:03.169Z,100875.22
2018-04-08T16:58:39.726Z,100891.35
2018-04-08T17:01:07.470Z,100895.66
2018-04-08T17:03:35.038Z,100900.80
2018-04-08T17:15:11.575Z,100903.02
2018-04-08T17:17:39.197Z,100903.19
2018-04-08T17:20:10.444Z,100901.03
2018-04-08T17:31:47.257Z,100920.20
2018-04-08T17:34:14.880Z,100918.01
2018-04-08T17:36:42.416Z,100917.63
2018-04-08T17:39:10.187Z,100919.05
2018-04-08T17:54:04.427Z,100946.18
2018-04-08T18:05:44.956Z,100960.64
2018-04-08T18:08:12.803Z,100963.09
2018-04-08T18:10:40.384Z,100961.19
2018-04-08T18:25:19.336Z,100986.92
2018-04-08T18:27:51.163Z,100984.65
2018-04-08T18:42:20.504Z,100999.27
2018-04-08T18:44:48.250Z,101007.61
2018-04-08T18:59:23.334Z,101032.83
2018-04-08T19:01:51.014Z,101033.17
2018-04-08T19:04:19.261Z,101040.37
2018-04-08T19:18:58.563Z,101052.06
2018-04-08T19:33:33.022Z,101075.16
2018-04-08T19:36:01.648Z,101077.76
2018-04-08T19:38:31.266Z,101083.70
2018-04-08T19:50:08.100Z,101101.66
2018-04-08T19:52:36.021Z,101109.27
2018-04-08T19:55:03.855Z,101108.78
2018-04-08T20:06:40.566Z,101127.75
2018-04-08T20:09:08.228Z,101125.34
2018-04-08T20:11:35.866Z,101131.16
2018-04-08T20:23:12.704Z,101143.02
2018-04-08T20:25:40.284Z,101140.88
2018-04-08T20:28:07.873Z,101141.85
2018-04-08T20:39:44.146Z,101152.06
2018-04-08T20:42:11.780Z,101159.07
2018-04-08T20:44:39.360Z,101156.97
2018-04-08T20:47:07.045Z,101152.20
2018-04-08T20:52:37.481Z,101155.13
2018-04-08T20:55:10.925Z,101153.56
2018-04-08T20:57:38.450Z,101157.56
2018-04-08T21:00:05.988Z,101156.44
2018-04-08T21:02:33.489Z,101160.94
2018-04-08T23:18:19.569Z,101193.81
2018-04-08T23:20:47.121Z,101187.75
2018-04-08T23:23:16.145Z,101192.58
2018-04-08T23:34:26.669Z,101190.64
2018-04-08T23:36:54.207Z,101198.47
2018-04-08T23:39:21.781Z,101198.09
2018-04-08T23:53:54.672Z,101194.44
2018-04-08T23:56:22.242Z,101197.95
2018-04-08T23:58:49.780Z,101195.84
